WAT6402 VYMD-VGHS
Flight info
| Callsign | WAT6402 |
|---|---|
| Flight time | 1h 9m |
| Altitude | 34000 |
| Route | THAZI1N THAZI DCT APAGO DCT NUPUR DCT GURSO DCT AKEVO |
| Aircraft | B738/M-SDE2E3FGHIRWXY/LB1 |
Departure
| Time | 2026-05-08 02:15 |
|---|---|
| Airport | Mandalay International Airport (VYMD) |
Arrival
| Time | 2026-05-08 03:24 |
|---|---|
| Airport | Hazrat Shahjalal International Airport (VGHS) |
| Time | Latitude | Longitude | Altitude | Speed | Heading |
|---|---|---|---|---|---|
| 2026-05-08 01:49 | 21.70503 | 95.97142 | 289 ft | 0 kts | 273° |
| 2026-05-08 02:03 | 21.70502 | 95.97152 | 289 ft | 1 kts | 261° |
| 2026-05-08 02:03 | 21.70504 | 95.97177 | 290 ft | 4 kts | 274° |
| 2026-05-08 02:03 | 21.70499 | 95.97205 | 293 ft | 4 kts | 298° |
| 2026-05-08 02:04 | 21.70483 | 95.97227 | 295 ft | 4 kts | 325° |
| 2026-05-08 02:04 | 21.70459 | 95.97239 | 292 ft | 4 kts | 345° |
| 2026-05-08 02:04 | 21.70443 | 95.97243 | 295 ft | 0 kts | 350° |
| 2026-05-08 02:07 | 21.70459 | 95.97241 | 292 ft | 7 kts | 2° |
| 2026-05-08 02:07 | 21.70449 | 95.97285 | 293 ft | 12 kts | 154° |
| 2026-05-08 02:07 | 21.70368 | 95.97325 | 293 ft | 13 kts | 150° |
| 2026-05-08 02:07 | 21.70348 | 95.97409 | 290 ft | 13 kts | 78° |
| 2026-05-08 02:08 | 21.70329 | 95.97491 | 294 ft | 12 kts | 152° |
| 2026-05-08 02:08 | 21.70246 | 95.97504 | 292 ft | 12 kts | 170° |
| 2026-05-08 02:08 | 21.70167 | 95.97528 | 293 ft | 12 kts | 163° |
| 2026-05-08 02:08 | 21.70089 | 95.97542 | 294 ft | 11 kts | 175° |
| 2026-05-08 02:09 | 21.70002 | 95.97553 | 292 ft | 13 kts | 172° |
| 2026-05-08 02:09 | 21.69912 | 95.97567 | 294 ft | 13 kts | 171° |
| 2026-05-08 02:09 | 21.69826 | 95.97584 | 293 ft | 12 kts | 170° |
| 2026-05-08 02:09 | 21.69741 | 95.97599 | 293 ft | 12 kts | 170° |
| 2026-05-08 02:10 | 21.69659 | 95.97615 | 295 ft | 12 kts | 170° |
| 2026-05-08 02:10 | 21.69579 | 95.97630 | 295 ft | 12 kts | 170° |
| 2026-05-08 02:10 | 21.69500 | 95.97644 | 294 ft | 11 kts | 170° |
| 2026-05-08 02:10 | 21.69424 | 95.97658 | 295 ft | 11 kts | 170° |
| 2026-05-08 02:11 | 21.69351 | 95.97672 | 296 ft | 11 kts | 170° |
| 2026-05-08 02:11 | 21.69278 | 95.97682 | 296 ft | 12 kts | 174° |
| 2026-05-08 02:11 | 21.69189 | 95.97696 | 298 ft | 13 kts | 172° |
| 2026-05-08 02:11 | 21.69101 | 95.97712 | 296 ft | 13 kts | 169° |
| 2026-05-08 02:12 | 21.69009 | 95.97729 | 296 ft | 15 kts | 170° |
| 2026-05-08 02:12 | 21.68910 | 95.97747 | 298 ft | 14 kts | 170° |
| 2026-05-08 02:12 | 21.68811 | 95.97765 | 296 ft | 18 kts | 171° |
| 2026-05-08 02:12 | 21.68649 | 95.97792 | 298 ft | 25 kts | 171° |
| 2026-05-08 02:13 | 21.68481 | 95.97821 | 297 ft | 24 kts | 170° |
| 2026-05-08 02:13 | 21.68324 | 95.97850 | 302 ft | 23 kts | 171° |
| 2026-05-08 02:13 | 21.68201 | 95.97895 | 299 ft | 13 kts | 118° |
| 2026-05-08 02:13 | 21.68205 | 95.97992 | 298 ft | 13 kts | 79° |
| 2026-05-08 02:14 | 21.68253 | 95.98063 | 299 ft | 13 kts | 9° |
| 2026-05-08 02:14 | 21.68529 | 95.98019 | 297 ft | 78 kts | 351° |
| 2026-05-08 02:14 | 21.69305 | 95.97882 | 296 ft | 146 kts | 351° |
| 2026-05-08 02:14 | 21.70457 | 95.97676 | 593 ft | 178 kts | 351° |
| 2026-05-08 02:15 | 21.71667 | 95.97463 | 1511 ft | 172 kts | 351° |
| 2026-05-08 02:15 | 21.72865 | 95.97257 | 2312 ft | 182 kts | 351° |
| 2026-05-08 02:15 | 21.74226 | 95.97027 | 2755 ft | 207 kts | 352° |
| 2026-05-08 02:15 | 21.75680 | 95.96787 | 3411 ft | 214 kts | 352° |
| 2026-05-08 02:16 | 21.77166 | 95.96551 | 4108 ft | 219 kts | 354° |
| 2026-05-08 02:16 | 21.78749 | 95.96644 | 4461 ft | 238 kts | 16° |
| 2026-05-08 02:16 | 21.80254 | 95.97445 | 5025 ft | 247 kts | 37° |
| 2026-05-08 02:16 | 21.81394 | 95.98858 | 5631 ft | 255 kts | 60° |
| 2026-05-08 02:17 | 21.81932 | 96.00700 | 6202 ft | 264 kts | 85° |
| 2026-05-08 02:17 | 21.81707 | 96.02658 | 6843 ft | 267 kts | 111° |
| 2026-05-08 02:17 | 21.80727 | 96.04340 | 7449 ft | 268 kts | 137° |
| 2026-05-08 02:17 | 21.79203 | 96.05484 | 8123 ft | 267 kts | 153° |
| 2026-05-08 02:18 | 21.77561 | 96.06448 | 8775 ft | 271 kts | 154° |
| 2026-05-08 02:18 | 21.75897 | 96.07416 | 9440 ft | 273 kts | 155° |
| 2026-05-08 02:18 | 21.74222 | 96.08407 | 10071 ft | 276 kts | 155° |
| 2026-05-08 02:18 | 21.72540 | 96.09418 | 10675 ft | 278 kts | 154° |
| 2026-05-08 02:19 | 21.70845 | 96.10449 | 11235 ft | 282 kts | 154° |
| 2026-05-08 02:19 | 21.69153 | 96.11486 | 11799 ft | 285 kts | 154° |
| 2026-05-08 02:19 | 21.67396 | 96.12568 | 12337 ft | 290 kts | 154° |
| 2026-05-08 02:19 | 21.65642 | 96.13652 | 12901 ft | 292 kts | 154° |
| 2026-05-08 02:20 | 21.63895 | 96.14733 | 13479 ft | 295 kts | 154° |
| 2026-05-08 02:20 | 21.62086 | 96.15851 | 14005 ft | 297 kts | 154° |
| 2026-05-08 02:20 | 21.60286 | 96.16964 | 14524 ft | 299 kts | 154° |
| 2026-05-08 02:20 | 21.58509 | 96.18087 | 15044 ft | 301 kts | 153° |
| 2026-05-08 02:21 | 21.56686 | 96.19259 | 15582 ft | 303 kts | 153° |
| 2026-05-08 02:21 | 21.54900 | 96.20410 | 16091 ft | 305 kts | 153° |
| 2026-05-08 02:21 | 21.53037 | 96.21607 | 16347 ft | 323 kts | 153° |
| 2026-05-08 02:21 | 21.51048 | 96.22881 | 16509 ft | 343 kts | 152° |
| 2026-05-08 02:22 | 21.48939 | 96.24233 | 16680 ft | 363 kts | 152° |
| 2026-05-08 02:22 | 21.46718 | 96.25659 | 16811 ft | 381 kts | 152° |
| 2026-05-08 02:22 | 21.44389 | 96.27155 | 16940 ft | 398 kts | 152° |
| 2026-05-08 02:22 | 21.41968 | 96.28710 | 17056 ft | 413 kts | 152° |
| 2026-05-08 02:23 | 21.39465 | 96.30314 | 17290 ft | 423 kts | 152° |
| 2026-05-08 02:23 | 21.36908 | 96.31898 | 17738 ft | 425 kts | 156° |
| 2026-05-08 02:23 | 21.34103 | 96.32776 | 18228 ft | 419 kts | 179° |
| 2026-05-08 02:23 | 21.31252 | 96.32399 | 18734 ft | 413 kts | 201° |
| 2026-05-08 02:24 | 21.28789 | 96.30871 | 19209 ft | 410 kts | 223° |
| 2026-05-08 02:24 | 21.26989 | 96.28513 | 19678 ft | 411 kts | 238° |
| 2026-05-08 02:24 | 21.25744 | 96.25756 | 20066 ft | 413 kts | 250° |
| 2026-05-08 02:24 | 21.25067 | 96.22749 | 20413 ft | 418 kts | 262° |
| 2026-05-08 02:25 | 21.25148 | 96.19624 | 20761 ft | 425 kts | 279° |
| 2026-05-08 02:25 | 21.26221 | 96.16652 | 21146 ft | 433 kts | 296° |
| 2026-05-08 02:25 | 21.27868 | 96.13933 | 21531 ft | 437 kts | 302° |
| 2026-05-08 02:25 | 21.29695 | 96.11307 | 21834 ft | 441 kts | 303° |
| 2026-05-08 02:26 | 21.31486 | 96.08624 | 22127 ft | 442 kts | 299° |
| 2026-05-08 02:26 | 21.33052 | 96.05784 | 22443 ft | 442 kts | 294° |
| 2026-05-08 02:26 | 21.34356 | 96.02804 | 22770 ft | 441 kts | 289° |
| 2026-05-08 02:26 | 21.35446 | 95.99728 | 23100 ft | 441 kts | 285° |
| 2026-05-08 02:27 | 21.36393 | 95.96601 | 23406 ft | 441 kts | 283° |
| 2026-05-08 02:27 | 21.37260 | 95.93436 | 23685 ft | 442 kts | 282° |
| 2026-05-08 02:27 | 21.38089 | 95.90263 | 23994 ft | 442 kts | 282° |
| 2026-05-08 02:27 | 21.38906 | 95.87082 | 24297 ft | 443 kts | 281° |
| 2026-05-08 02:28 | 21.39725 | 95.83893 | 24561 ft | 444 kts | 282° |
| 2026-05-08 02:28 | 21.40553 | 95.80691 | 24795 ft | 446 kts | 282° |
| 2026-05-08 02:28 | 21.41387 | 95.77483 | 25035 ft | 447 kts | 282° |
| 2026-05-08 02:28 | 21.42229 | 95.74265 | 25275 ft | 448 kts | 282° |
| 2026-05-08 02:29 | 21.43075 | 95.71037 | 25511 ft | 449 kts | 282° |
| 2026-05-08 02:29 | 21.43924 | 95.67802 | 25709 ft | 452 kts | 282° |
| 2026-05-08 02:29 | 21.44780 | 95.64546 | 25891 ft | 454 kts | 282° |
| 2026-05-08 02:29 | 21.45635 | 95.61285 | 26131 ft | 455 kts | 282° |
| 2026-05-08 02:30 | 21.46492 | 95.58020 | 26379 ft | 455 kts | 282° |
| 2026-05-08 02:30 | 21.47348 | 95.54750 | 26602 ft | 456 kts | 282° |
| 2026-05-08 02:30 | 21.47916 | 95.52579 | 26737 ft | 456 kts | 282° |
| 2026-05-08 02:30 | 21.48776 | 95.49293 | 26969 ft | 457 kts | 282° |
| 2026-05-08 02:31 | 21.49631 | 95.46023 | 27350 ft | 454 kts | 282° |
| 2026-05-08 02:31 | 21.50483 | 95.42766 | 27691 ft | 452 kts | 282° |
| 2026-05-08 02:31 | 21.51329 | 95.39523 | 27910 ft | 452 kts | 282° |
| 2026-05-08 02:31 | 21.52178 | 95.36263 | 27894 ft | 454 kts | 282° |
| 2026-05-08 02:32 | 21.53029 | 95.32995 | 27905 ft | 453 kts | 282° |
| 2026-05-08 02:32 | 21.53874 | 95.29748 | 27906 ft | 451 kts | 282° |
| 2026-05-08 02:32 | 21.54717 | 95.26505 | 27901 ft | 450 kts | 282° |
| 2026-05-08 02:32 | 21.55556 | 95.23274 | 27899 ft | 449 kts | 282° |
| 2026-05-08 02:33 | 21.56394 | 95.20041 | 27902 ft | 449 kts | 282° |
| 2026-05-08 02:33 | 21.57231 | 95.16811 | 27902 ft | 448 kts | 282° |
| 2026-05-08 02:33 | 21.58066 | 95.13586 | 27905 ft | 448 kts | 282° |
| 2026-05-08 02:33 | 21.58900 | 95.10362 | 27908 ft | 448 kts | 282° |
| 2026-05-08 02:34 | 21.59735 | 95.07131 | 27899 ft | 449 kts | 282° |
| 2026-05-08 02:34 | 21.60569 | 95.03903 | 27901 ft | 449 kts | 282° |
| 2026-05-08 02:34 | 21.61402 | 95.00671 | 27908 ft | 449 kts | 282° |
| 2026-05-08 02:34 | 21.62238 | 94.97431 | 27908 ft | 450 kts | 282° |
| 2026-05-08 02:35 | 21.63073 | 94.94192 | 27913 ft | 450 kts | 281° |
| 2026-05-08 02:35 | 21.63909 | 94.90942 | 27911 ft | 451 kts | 281° |
| 2026-05-08 02:35 | 21.64744 | 94.87696 | 27909 ft | 451 kts | 281° |
| 2026-05-08 02:35 | 21.65579 | 94.84448 | 27907 ft | 451 kts | 281° |
| 2026-05-08 02:36 | 21.66413 | 94.81196 | 27912 ft | 451 kts | 281° |
| 2026-05-08 02:36 | 21.67247 | 94.77948 | 27915 ft | 451 kts | 281° |
| 2026-05-08 02:36 | 21.68081 | 94.74693 | 27915 ft | 451 kts | 281° |
| 2026-05-08 02:36 | 21.68903 | 94.71485 | 27920 ft | 452 kts | 281° |
| 2026-05-08 02:37 | 21.69736 | 94.68226 | 27922 ft | 452 kts | 281° |
| 2026-05-08 02:37 | 21.70569 | 94.64968 | 27924 ft | 451 kts | 281° |
| 2026-05-08 02:37 | 21.71401 | 94.61710 | 27924 ft | 451 kts | 281° |
| 2026-05-08 02:37 | 21.72233 | 94.58452 | 27922 ft | 451 kts | 281° |
| 2026-05-08 02:38 | 21.73062 | 94.55199 | 27928 ft | 451 kts | 281° |
| 2026-05-08 02:38 | 21.73891 | 94.51946 | 27933 ft | 451 kts | 281° |
| 2026-05-08 02:38 | 21.74720 | 94.48687 | 27949 ft | 451 kts | 281° |
| 2026-05-08 02:38 | 21.75547 | 94.45433 | 27950 ft | 451 kts | 281° |
| 2026-05-08 02:39 | 21.76373 | 94.42184 | 27944 ft | 450 kts | 281° |
| 2026-05-08 02:39 | 21.77197 | 94.38939 | 27930 ft | 449 kts | 280° |
| 2026-05-08 02:39 | 21.78017 | 94.35705 | 27949 ft | 447 kts | 281° |
| 2026-05-08 02:39 | 21.78836 | 94.32479 | 27931 ft | 446 kts | 280° |
| 2026-05-08 02:40 | 21.79649 | 94.29267 | 27937 ft | 444 kts | 281° |
| 2026-05-08 02:40 | 21.80460 | 94.26059 | 27951 ft | 443 kts | 281° |
| 2026-05-08 02:40 | 21.81268 | 94.22861 | 27956 ft | 443 kts | 281° |
| 2026-05-08 02:40 | 21.82076 | 94.19658 | 27958 ft | 443 kts | 281° |
| 2026-05-08 02:41 | 21.82882 | 94.16462 | 27959 ft | 444 kts | 280° |
| 2026-05-08 02:41 | 21.83689 | 94.13254 | 27961 ft | 444 kts | 280° |
| 2026-05-08 02:41 | 21.84498 | 94.10042 | 27965 ft | 444 kts | 280° |
| 2026-05-08 02:41 | 21.85305 | 94.06833 | 27964 ft | 445 kts | 280° |
| 2026-05-08 02:42 | 21.86112 | 94.03621 | 27965 ft | 445 kts | 280° |
| 2026-05-08 02:42 | 21.86920 | 94.00405 | 27962 ft | 445 kts | 280° |
| 2026-05-08 02:42 | 21.87726 | 93.97194 | 27970 ft | 445 kts | 280° |
| 2026-05-08 02:42 | 21.88534 | 93.93972 | 27991 ft | 445 kts | 280° |
| 2026-05-08 02:43 | 21.89339 | 93.90759 | 27982 ft | 445 kts | 280° |
| 2026-05-08 02:43 | 21.90143 | 93.87545 | 27993 ft | 445 kts | 280° |
| 2026-05-08 02:43 | 21.90948 | 93.84325 | 27985 ft | 445 kts | 280° |
| 2026-05-08 02:43 | 21.91752 | 93.81106 | 28005 ft | 445 kts | 280° |
| 2026-05-08 02:44 | 21.93363 | 93.74647 | 28010 ft | 447 kts | 280° |
| 2026-05-08 02:44 | 21.94973 | 93.68184 | 27988 ft | 446 kts | 280° |
| 2026-05-08 02:45 | 21.96574 | 93.61746 | 27984 ft | 445 kts | 281° |
| 2026-05-08 02:45 | 21.98165 | 93.55335 | 28004 ft | 446 kts | 280° |
| 2026-05-08 02:46 | 21.99767 | 93.48862 | 28006 ft | 447 kts | 280° |
| 2026-05-08 02:46 | 22.01369 | 93.42378 | 27994 ft | 448 kts | 280° |
| 2026-05-08 02:47 | 22.02170 | 93.39136 | 27990 ft | 447 kts | 280° |
| 2026-05-08 02:47 | 22.02970 | 93.35900 | 28010 ft | 446 kts | 280° |
| 2026-05-08 02:47 | 22.04563 | 93.29435 | 28010 ft | 447 kts | 280° |
| 2026-05-08 02:48 | 22.06161 | 93.22936 | 28006 ft | 450 kts | 280° |
| 2026-05-08 02:48 | 22.06961 | 93.19674 | 27962 ft | 450 kts | 280° |
| 2026-05-08 02:48 | 22.07758 | 93.16422 | 27968 ft | 448 kts | 280° |
| 2026-05-08 02:49 | 22.08555 | 93.13177 | 27991 ft | 447 kts | 280° |
| 2026-05-08 02:49 | 22.09348 | 93.09939 | 27991 ft | 447 kts | 280° |
| 2026-05-08 02:49 | 22.10141 | 93.06692 | 27992 ft | 448 kts | 280° |
| 2026-05-08 02:49 | 22.10934 | 93.03444 | 27966 ft | 448 kts | 280° |
| 2026-05-08 02:50 | 22.11728 | 93.00191 | 27949 ft | 448 kts | 280° |
| 2026-05-08 02:50 | 22.12523 | 92.96938 | 27965 ft | 448 kts | 280° |
| 2026-05-08 02:50 | 22.13315 | 92.93690 | 27960 ft | 447 kts | 280° |
| 2026-05-08 02:50 | 22.14106 | 92.90445 | 27965 ft | 447 kts | 280° |
| 2026-05-08 02:51 | 22.14894 | 92.87206 | 27961 ft | 447 kts | 280° |
| 2026-05-08 02:51 | 22.15681 | 92.83967 | 27937 ft | 447 kts | 280° |
| 2026-05-08 02:51 | 22.16469 | 92.80723 | 27953 ft | 447 kts | 279° |
| 2026-05-08 02:51 | 22.17254 | 92.77483 | 27967 ft | 447 kts | 280° |
| 2026-05-08 02:52 | 22.18040 | 92.74241 | 27942 ft | 447 kts | 279° |
| 2026-05-08 02:52 | 22.18826 | 92.70996 | 27955 ft | 447 kts | 279° |
| 2026-05-08 02:52 | 22.19614 | 92.67742 | 27943 ft | 448 kts | 280° |
| 2026-05-08 02:52 | 22.20560 | 92.64529 | 27931 ft | 452 kts | 286° |
| 2026-05-08 02:53 | 22.21945 | 92.61455 | 27955 ft | 457 kts | 294° |
| 2026-05-08 02:53 | 22.23503 | 92.58466 | 27942 ft | 457 kts | 294° |
| 2026-05-08 02:53 | 22.25069 | 92.55476 | 27930 ft | 457 kts | 294° |
| 2026-05-08 02:53 | 22.26626 | 92.52493 | 27942 ft | 456 kts | 294° |
| 2026-05-08 02:54 | 22.28173 | 92.49510 | 27942 ft | 455 kts | 293° |
| 2026-05-08 02:54 | 22.29714 | 92.46521 | 27947 ft | 455 kts | 293° |
| 2026-05-08 02:54 | 22.31247 | 92.43531 | 27931 ft | 455 kts | 293° |
| 2026-05-08 02:54 | 22.32776 | 92.40539 | 27941 ft | 455 kts | 293° |
| 2026-05-08 02:55 | 22.34304 | 92.37543 | 27941 ft | 456 kts | 293° |
| 2026-05-08 02:55 | 22.37364 | 92.31546 | 27952 ft | 455 kts | 293° |
| 2026-05-08 02:55 | 22.38890 | 92.28550 | 27931 ft | 455 kts | 293° |
| 2026-05-08 02:56 | 22.40415 | 92.25552 | 27942 ft | 455 kts | 293° |
| 2026-05-08 02:56 | 22.41936 | 92.22563 | 27937 ft | 454 kts | 293° |
| 2026-05-08 02:56 | 22.43459 | 92.19567 | 27925 ft | 454 kts | 293° |
| 2026-05-08 02:56 | 22.44982 | 92.16572 | 27950 ft | 454 kts | 292° |
| 2026-05-08 02:57 | 22.46499 | 92.13585 | 27941 ft | 454 kts | 292° |
| 2026-05-08 02:57 | 22.48021 | 92.10589 | 27944 ft | 454 kts | 292° |
| 2026-05-08 02:57 | 22.49537 | 92.07602 | 27938 ft | 454 kts | 292° |
| 2026-05-08 02:57 | 22.51055 | 92.04609 | 27932 ft | 453 kts | 292° |
| 2026-05-08 02:58 | 22.52570 | 92.01621 | 27936 ft | 453 kts | 292° |
| 2026-05-08 02:58 | 22.54083 | 91.98634 | 27937 ft | 453 kts | 292° |
| 2026-05-08 02:58 | 22.55596 | 91.95646 | 27934 ft | 453 kts | 292° |
| 2026-05-08 02:58 | 22.57107 | 91.92660 | 27930 ft | 453 kts | 292° |
| 2026-05-08 02:59 | 22.58618 | 91.89673 | 27946 ft | 453 kts | 292° |
| 2026-05-08 02:59 | 22.60130 | 91.86681 | 27941 ft | 453 kts | 292° |
| 2026-05-08 02:59 | 22.61639 | 91.83693 | 27937 ft | 453 kts | 292° |
| 2026-05-08 02:59 | 22.63151 | 91.80699 | 27934 ft | 453 kts | 292° |
| 2026-05-08 03:00 | 22.64659 | 91.77710 | 27938 ft | 453 kts | 292° |
| 2026-05-08 03:00 | 22.66166 | 91.74722 | 27940 ft | 452 kts | 292° |
| 2026-05-08 03:00 | 22.67674 | 91.71728 | 27939 ft | 452 kts | 292° |
| 2026-05-08 03:00 | 22.69179 | 91.68740 | 27941 ft | 452 kts | 292° |
| 2026-05-08 03:01 | 22.70686 | 91.65747 | 27938 ft | 452 kts | 292° |
| 2026-05-08 03:01 | 22.72188 | 91.62760 | 27933 ft | 452 kts | 292° |
| 2026-05-08 03:01 | 22.73691 | 91.59772 | 27937 ft | 452 kts | 292° |
| 2026-05-08 03:01 | 22.75196 | 91.56775 | 27930 ft | 452 kts | 292° |
| 2026-05-08 03:02 | 22.76681 | 91.53819 | 27938 ft | 452 kts | 292° |
| 2026-05-08 03:02 | 22.78182 | 91.50828 | 27956 ft | 452 kts | 292° |
| 2026-05-08 03:02 | 22.79685 | 91.47831 | 27940 ft | 452 kts | 292° |
| 2026-05-08 03:02 | 22.81183 | 91.44843 | 27934 ft | 451 kts | 292° |
| 2026-05-08 03:03 | 22.82682 | 91.41851 | 27928 ft | 451 kts | 292° |
| 2026-05-08 03:03 | 22.84176 | 91.38869 | 27932 ft | 450 kts | 292° |
| 2026-05-08 03:03 | 22.85668 | 91.35887 | 27932 ft | 449 kts | 292° |
| 2026-05-08 03:03 | 22.87160 | 91.32904 | 27930 ft | 449 kts | 292° |
| 2026-05-08 03:04 | 22.88648 | 91.29926 | 27930 ft | 449 kts | 292° |
| 2026-05-08 03:04 | 22.90132 | 91.26955 | 27933 ft | 448 kts | 292° |
| 2026-05-08 03:04 | 22.91615 | 91.23986 | 27937 ft | 448 kts | 292° |
| 2026-05-08 03:04 | 22.93097 | 91.21014 | 27928 ft | 448 kts | 292° |
| 2026-05-08 03:05 | 22.94580 | 91.18040 | 27928 ft | 448 kts | 292° |
| 2026-05-08 03:05 | 22.96062 | 91.15065 | 27929 ft | 448 kts | 292° |
| 2026-05-08 03:05 | 22.97545 | 91.12085 | 27510 ft | 452 kts | 292° |
| 2026-05-08 03:05 | 22.99040 | 91.09078 | 26731 ft | 451 kts | 293° |
| 2026-05-08 03:06 | 23.00533 | 91.06078 | 25839 ft | 452 kts | 293° |
| 2026-05-08 03:06 | 23.02021 | 91.03089 | 25160 ft | 448 kts | 294° |
| 2026-05-08 03:06 | 23.03493 | 91.00129 | 24485 ft | 444 kts | 294° |
| 2026-05-08 03:06 | 23.04951 | 90.97193 | 23814 ft | 440 kts | 294° |
| 2026-05-08 03:07 | 23.06397 | 90.94277 | 23068 ft | 437 kts | 294° |
| 2026-05-08 03:07 | 23.07871 | 90.91400 | 22352 ft | 435 kts | 299° |
| 2026-05-08 03:07 | 23.09910 | 90.88953 | 21656 ft | 441 kts | 317° |
| 2026-05-08 03:07 | 23.12529 | 90.87212 | 21076 ft | 444 kts | 330° |
| 2026-05-08 03:08 | 23.15423 | 90.86167 | 20468 ft | 449 kts | 345° |
| 2026-05-08 03:08 | 23.18576 | 90.85852 | 19852 ft | 449 kts | 352° |
| 2026-05-08 03:08 | 23.21650 | 90.85720 | 19195 ft | 447 kts | 353° |
| 2026-05-08 03:08 | 23.24743 | 90.85590 | 18551 ft | 443 kts | 353° |
| 2026-05-08 03:09 | 23.27853 | 90.85419 | 17835 ft | 441 kts | 353° |
| 2026-05-08 03:09 | 23.30862 | 90.85227 | 17164 ft | 436 kts | 352° |
| 2026-05-08 03:09 | 23.33840 | 90.84820 | 16504 ft | 427 kts | 344° |
| 2026-05-08 03:09 | 23.36651 | 90.83902 | 15873 ft | 418 kts | 334° |
| 2026-05-08 03:10 | 23.39322 | 90.82700 | 15256 ft | 413 kts | 333° |
| 2026-05-08 03:10 | 23.41961 | 90.81506 | 14639 ft | 409 kts | 334° |
| 2026-05-08 03:10 | 23.44586 | 90.80344 | 14021 ft | 406 kts | 335° |
| 2026-05-08 03:10 | 23.47211 | 90.79202 | 13350 ft | 403 kts | 335° |
| 2026-05-08 03:11 | 23.49803 | 90.78077 | 12713 ft | 399 kts | 335° |
| 2026-05-08 03:11 | 23.52335 | 90.76900 | 12107 ft | 393 kts | 333° |
| 2026-05-08 03:11 | 23.54819 | 90.75691 | 11527 ft | 388 kts | 333° |
| 2026-05-08 03:11 | 23.57261 | 90.74494 | 11120 ft | 377 kts | 333° |
| 2026-05-08 03:12 | 23.59570 | 90.73369 | 10957 ft | 351 kts | 334° |
| 2026-05-08 03:12 | 23.61731 | 90.72322 | 10812 ft | 329 kts | 334° |
| 2026-05-08 03:12 | 23.63765 | 90.71339 | 10674 ft | 311 kts | 334° |
| 2026-05-08 03:12 | 23.65704 | 90.70404 | 10557 ft | 299 kts | 334° |
| 2026-05-08 03:13 | 23.67579 | 90.69499 | 10448 ft | 294 kts | 334° |
| 2026-05-08 03:13 | 23.69474 | 90.68584 | 10354 ft | 300 kts | 334° |
| 2026-05-08 03:13 | 23.71366 | 90.67658 | 10226 ft | 294 kts | 331° |
| 2026-05-08 03:13 | 23.72505 | 90.66897 | 10134 ft | 288 kts | 321° |
| 2026-05-08 03:14 | 23.74029 | 90.65536 | 10021 ft | 279 kts | 317° |
| 2026-05-08 03:14 | 23.75477 | 90.64162 | 9816 ft | 275 kts | 317° |
| 2026-05-08 03:14 | 23.76930 | 90.62807 | 9523 ft | 274 kts | 318° |
| 2026-05-08 03:14 | 23.78390 | 90.61473 | 9224 ft | 273 kts | 319° |
| 2026-05-08 03:15 | 23.79851 | 90.60151 | 8941 ft | 272 kts | 319° |
| 2026-05-08 03:15 | 23.81312 | 90.58839 | 8657 ft | 272 kts | 320° |
| 2026-05-08 03:15 | 23.82799 | 90.57560 | 8377 ft | 272 kts | 321° |
| 2026-05-08 03:15 | 23.84276 | 90.56306 | 8119 ft | 266 kts | 320° |
| 2026-05-08 03:16 | 23.85726 | 90.55073 | 7819 ft | 263 kts | 320° |
| 2026-05-08 03:16 | 23.87171 | 90.53840 | 7536 ft | 264 kts | 320° |
| 2026-05-08 03:16 | 23.88619 | 90.52603 | 7258 ft | 265 kts | 321° |
| 2026-05-08 03:16 | 23.90072 | 90.51360 | 6992 ft | 266 kts | 321° |
| 2026-05-08 03:17 | 23.91548 | 90.50135 | 6717 ft | 267 kts | 322° |
| 2026-05-08 03:17 | 23.93043 | 90.48915 | 6437 ft | 268 kts | 322° |
| 2026-05-08 03:17 | 23.94538 | 90.47696 | 6158 ft | 269 kts | 322° |
| 2026-05-08 03:17 | 23.96042 | 90.46468 | 5860 ft | 270 kts | 322° |
| 2026-05-08 03:18 | 23.97544 | 90.45238 | 5559 ft | 269 kts | 322° |
| 2026-05-08 03:18 | 23.99035 | 90.44017 | 5273 ft | 266 kts | 322° |
| 2026-05-08 03:18 | 24.00506 | 90.42810 | 5000 ft | 263 kts | 322° |
| 2026-05-08 03:18 | 24.01971 | 90.41608 | 4725 ft | 263 kts | 321° |
| 2026-05-08 03:19 | 24.03128 | 90.40083 | 4413 ft | 264 kts | 292° |
| 2026-05-08 03:19 | 24.03411 | 90.38135 | 4149 ft | 262 kts | 263° |
| 2026-05-08 03:19 | 24.02845 | 90.36277 | 3857 ft | 255 kts | 239° |
| 2026-05-08 03:19 | 24.01868 | 90.34709 | 3622 ft | 245 kts | 232° |
| 2026-05-08 03:20 | 24.00859 | 90.33244 | 3352 ft | 237 kts | 232° |
| 2026-05-08 03:20 | 23.99884 | 90.31826 | 3081 ft | 230 kts | 232° |
| 2026-05-08 03:20 | 23.98801 | 90.30597 | 2806 ft | 221 kts | 209° |
| 2026-05-08 03:20 | 23.97379 | 90.30201 | 2614 ft | 206 kts | 176° |
| 2026-05-08 03:21 | 23.96041 | 90.30545 | 2392 ft | 192 kts | 153° |
| 2026-05-08 03:21 | 23.94939 | 90.31303 | 2182 ft | 184 kts | 142° |
| 2026-05-08 03:21 | 23.93930 | 90.32108 | 2011 ft | 178 kts | 142° |
| 2026-05-08 03:21 | 23.92951 | 90.32894 | 1903 ft | 170 kts | 141° |
| 2026-05-08 03:22 | 23.92025 | 90.33644 | 1820 ft | 167 kts | 142° |
| 2026-05-08 03:22 | 23.91072 | 90.34420 | 1505 ft | 173 kts | 142° |
| 2026-05-08 03:22 | 23.90124 | 90.35180 | 1214 ft | 163 kts | 142° |
| 2026-05-08 03:22 | 23.89243 | 90.35881 | 1002 ft | 156 kts | 142° |
| 2026-05-08 03:23 | 23.88357 | 90.36585 | 799 ft | 160 kts | 142° |
| 2026-05-08 03:23 | 23.87448 | 90.37308 | 572 ft | 163 kts | 143° |
| 2026-05-08 03:23 | 23.86531 | 90.38040 | 314 ft | 159 kts | 143° |
| 2026-05-08 03:23 | 23.85661 | 90.38734 | 94 ft | 151 kts | 144° |
| 2026-05-08 03:24 | 23.84870 | 90.39357 | 30 ft | 120 kts | 144° |
| 2026-05-08 03:24 | 23.84369 | 90.39751 | 28 ft | 49 kts | 144° |
| 2026-05-08 03:24 | 23.84204 | 90.39885 | 28 ft | 29 kts | 143° |
| 2026-05-08 03:24 | 23.84061 | 90.40071 | 30 ft | 32 kts | 118° |
| 2026-05-08 03:25 | 23.83999 | 90.40296 | 29 ft | 30 kts | 89° |
| 2026-05-08 03:25 | 23.84079 | 90.40496 | 29 ft | 28 kts | 53° |
| 2026-05-08 03:25 | 23.84195 | 90.40662 | 29 ft | 27 kts | 52° |
| 2026-05-08 03:25 | 23.84243 | 90.40732 | 29 ft | 0 kts | 54° |